Grand Forks, North Dakota
Current Conditions -  °F | °C
As of 11:53 AM on Sunday 21 Dec 2014 (Local Time) from KGFK Reporting Station
Overcast Overcast  
Wind Chill: 20°   Ceiling: 600
Heat Index: 31°   Visibility: 7mi
Dew Point: 29°   Wind: 15mph
Humidity: 92%   Direction: 180°S
Pressure: 29.66"   Gusts: NA
Location:  47.92°N, 97.03°W
Report Text: KGFK 211753Z 18013KT 7SM OVC006 M01/M02 A2966 RMK AO2 SLP054 T10061017 11006 21011 58012 $
Loading
Personal Weather Stations






























Interactive Weather Map New forecast layout! Learn more

10-Day Weather Forecast

Advertisements
Track Severe Weather on mobile